Time;durP1;ratioP1;P1;durP2;ratioP2;P2;SDS_P1;SDS_P2;PMS_P1;PMS_P2;Temp;Humidity;BMP_temperature;BMP_pressure;BME280_temperature;BME280_humidity;BME280_pressure;Samples;Min_cycle;Max_cycle;Signal;HPM_P1;HPM_P2
2024/04/25 00:02:24;;;;;;;6.80;3.90;;;;;;;3.77;83.33;94751.84;5325011;26;20245;-80
2024/04/25 00:04:50;;;;;;;5.40;3.70;;;;;;;3.69;83.77;94747.31;5341354;26;20244;-80
2024/04/25 00:07:17;;;;;;;4.33;3.73;;;;;;;3.68;83.39;94746.50;5358626;26;20266;-80
2024/04/25 00:09:42;;;;;;;6.17;4.13;;;;;;;3.69;83.37;94752.47;5366753;26;20247;-80
2024/04/25 00:12:07;;;;;;;9.73;4.57;;;;;;;3.61;83.91;94747.13;5372981;26;20291;-79
2024/04/25 00:14:33;;;;;;;4.90;4.17;;;;;;;3.45;84.37;94745.00;5362502;26;20873;-79
2024/04/25 00:16:58;;;;;;;6.37;4.00;;;;;;;3.55;84.19;94745.91;5355240;26;20278;-79
2024/04/25 00:19:23;;;;;;;6.53;4.43;;;;;;;3.74;83.76;94744.41;5372388;26;20245;-80
2024/04/25 00:21:49;;;;;;;6.83;4.60;;;;;;;3.60;83.94;94738.63;5367288;26;20353;-79
2024/04/25 00:24:16;;;;;;;6.60;4.63;;;;;;;3.68;84.11;94735.44;5364855;26;20253;-79
2024/04/25 00:26:42;;;;;;;9.53;4.77;;;;;;;3.71;83.57;94740.34;5358520;26;20652;-80
2024/04/25 00:29:08;;;;;;;6.63;4.80;;;;;;;3.75;83.83;94738.31;5361566;26;21135;-80
2024/04/25 00:31:35;;;;;;;5.57;4.43;;;;;;;3.60;84.25;94733.47;5363544;26;20241;-79
2024/04/25 00:34:00;;;;;;;5.83;4.63;;;;;;;3.70;84.20;94738.69;5364275;26;20274;-80
2024/04/25 00:36:26;;;;;;;6.03;4.27;;;;;;;3.76;83.91;94737.38;5352493;26;20240;-79
2024/04/25 00:38:51;;;;;;;4.73;4.17;;;;;;;3.73;84.28;94735.06;5351314;26;20237;-78
2024/04/25 00:41:16;;;;;;;6.03;4.07;;;;;;;3.73;84.09;94735.88;5372411;26;20284;-81
2024/04/25 00:43:41;;;;;;;4.27;3.43;;;;;;;3.58;84.71;94732.78;5367049;26;20243;-80
2024/04/25 00:46:07;;;;;;;6.03;4.07;;;;;;;3.64;84.70;94732.31;5339056;26;20333;-78
2024/04/25 00:48:32;;;;;;;5.97;4.40;;;;;;;3.60;84.96;94733.47;5334499;26;20288;-80
2024/04/25 00:51:01;;;;;;;4.87;4.30;;;;;;;3.45;85.99;94726.22;5325634;26;20268;-80
2024/04/25 00:53:27;;;;;;;6.73;4.90;;;;;;;3.37;86.83;94725.09;5366691;26;20240;-80
2024/04/25 00:55:54;;;;;;;5.67;4.77;;;;;;;3.45;86.52;94724.47;5338337;26;20247;-79
2024/04/25 00:58:21;;;;;;;7.57;4.60;;;;;;;3.52;85.98;94723.03;5369085;26;20570;-79
2024/04/25 01:00:49;;;;;;;6.00;4.47;;;;;;;3.49;86.24;94728.41;5329303;26;20745;-78
2024/04/25 01:03:14;;;;;;;4.87;4.27;;;;;;;3.60;85.79;94724.97;5360112;26;20269;-81
2024/04/25 01:05:41;;;;;;;6.40;4.60;;;;;;;3.54;85.98;94721.16;5331759;26;20238;-81
2024/04/25 01:08:07;;;;;;;6.80;4.63;;;;;;;3.40;86.33;94718.91;5307191;26;20284;-82
2024/04/25 01:10:33;;;;;;;7.63;4.83;;;;;;;3.56;85.58;94726.97;5351785;26;20248;-82
2024/04/25 01:12:58;;;;;;;8.37;4.40;;;;;;;3.42;86.37;94720.38;5373487;26;20318;-82
2024/04/25 01:15:23;;;;;;;6.43;4.27;;;;;;;3.45;86.13;94711.66;5358225;26;20575;-80
2024/04/25 01:17:49;;;;;;;8.40;5.20;;;;;;;3.35;86.65;94706.41;5358674;26;20279;-81
2024/04/25 01:20:14;;;;;;;6.37;5.33;;;;;;;3.39;87.08;94707.00;5368559;26;20275;-81
2024/04/25 01:22:44;;;;;;;8.10;5.23;;;;;;;3.34;87.50;94702.22;5370031;26;20351;-79
2024/04/25 01:25:10;;;;;;;8.20;5.43;;;;;;;3.31;86.90;94704.25;5363764;26;20268;-80
2024/04/25 01:27:36;;;;;;;8.37;5.90;;;;;;;3.49;86.73;94705.31;5351764;26;20473;-80
2024/04/25 01:30:02;;;;;;;8.13;5.93;;;;;;;3.58;86.40;94701.19;5334406;26;20249;-80
2024/04/25 01:32:28;;;;;;;7.97;6.20;;;;;;;3.68;86.08;94707.19;5364429;26;20622;-79
2024/04/25 01:34:54;;;;;;;8.10;5.87;;;;;;;3.56;86.46;94698.75;5338573;26;20304;-78
2024/04/25 01:37:19;;;;;;;7.23;5.40;;;;;;;3.77;85.21;94698.72;5366517;26;20354;-80
2024/04/25 01:39:45;;;;;;;6.00;5.40;;;;;;;3.84;84.93;94699.03;5374134;26;20292;-80
2024/04/25 01:42:10;;;;;;;6.00;4.73;;;;;;;3.88;84.67;94703.78;5387895;26;20277;-79
2024/04/25 01:44:35;;;;;;;6.37;4.83;;;;;;;3.88;84.60;94701.19;5372683;26;20240;-79
2024/04/25 01:47:01;;;;;;;9.17;5.63;;;;;;;3.89;84.90;94702.03;5370130;26;20535;-80
2024/04/25 01:49:26;;;;;;;7.17;5.00;;;;;;;3.76;85.83;94709.13;5366029;26;20287;-78
2024/04/25 01:51:51;;;;;;;5.83;5.00;;;;;;;3.83;85.29;94699.97;5297930;26;20740;-81
2024/04/25 01:54:17;;;;;;;6.10;5.07;;;;;;;3.91;85.13;94697.59;5369702;26;20237;-80
2024/04/25 01:56:42;;;;;;;6.27;4.80;;;;;;;3.74;85.29;94690.47;5369610;26;20245;-79
2024/04/25 01:59:07;;;;;;;7.40;5.70;;;;;;;3.80;84.89;94690.78;5370146;26;20257;-80
2024/04/25 02:01:33;;;;;;;5.67;4.77;;;;;;;3.70;85.07;94690.69;5353637;26;20244;-81
2024/04/25 02:03:58;;;;;;;6.30;4.93;;;;;;;3.80;85.14;94693.34;5332257;26;20328;-79
2024/04/25 02:06:23;;;;;;;8.30;4.30;;;;;;;3.60;85.67;94689.84;5361885;26;20238;-80
2024/04/25 02:08:49;;;;;;;4.40;4.00;;;;;;;3.80;85.12;94692.50;5369699;26;20737;-80
2024/04/25 02:11:14;;;;;;;4.03;3.43;;;;;;;3.83;84.77;94692.28;5369826;26;20680;-79
2024/04/25 02:13:39;;;;;;;4.40;2.97;;;;;;;3.69;84.40;94685.69;5371827;26;20264;-79
2024/04/25 02:16:05;;;;;;;4.43;3.63;;;;;;;3.62;84.54;94687.97;5350143;26;20770;-79
2024/04/25 02:18:30;;;;;;;3.17;2.87;;;;;;;3.59;84.88;94683.06;5335435;26;20693;-79
2024/04/25 02:26:24;;;;;;;4.23;3.37;;;;;;;3.57;84.82;94674.69;5357888;26;20287;-80
2024/04/25 02:28:49;;;;;;;5.13;3.60;;;;;;;3.47;85.32;94678.97;5339155;26;20256;-81
2024/04/25 02:31:19;;;;;;;5.47;3.50;;;;;;;3.54;85.43;94681.84;5329553;26;20329;-79
2024/04/25 02:33:45;;;;;;;5.40;3.70;;;;;;;3.37;85.95;94683.22;5367264;26;20316;-78
2024/04/25 02:36:11;;;;;;;8.03;4.13;;;;;;;3.57;85.48;94669.56;5361473;26;20242;-80
2024/04/25 02:38:36;;;;;;;7.17;4.30;;;;;;;3.51;85.64;94675.19;5369339;26;20237;-79
2024/04/25 02:41:01;;;;;;;6.33;4.57;;;;;;;3.49;85.98;94673.69;5348306;26;20292;-79
2024/04/25 02:43:27;;;;;;;6.97;4.67;;;;;;;3.53;86.77;94675.88;5367071;26;20282;-78
2024/04/25 02:45:52;;;;;;;7.40;4.50;;;;;;;3.50;86.03;94673.56;5337724;26;20302;-81
2024/04/25 02:48:17;;;;;;;5.17;4.10;;;;;;;3.56;85.99;94665.38;5371634;26;20249;-81
2024/04/25 02:50:43;;;;;;;9.47;5.20;;;;;;;3.58;85.95;94678.06;5360073;26;20246;-79
2024/04/25 02:53:08;;;;;;;7.43;4.73;;;;;;;3.54;85.89;94676.72;5359879;26;20279;-80
2024/04/25 02:55:34;;;;;;;5.37;4.60;;;;;;;3.62;85.86;94672.56;5369288;26;20240;-80
2024/04/25 02:58:01;;;;;;;8.93;4.93;;;;;;;3.67;85.78;94682.44;5321153;26;20296;-78
2024/04/25 03:00:26;;;;;;;8.03;5.07;;;;;;;3.55;86.39;94681.72;5339786;26;20236;-79
2024/04/25 03:02:52;;;;;;;7.10;5.23;;;;;;;3.54;86.20;94677.53;5304478;26;20353;-80
2024/04/25 03:05:17;;;;;;;7.17;5.17;;;;;;;3.62;86.33;94677.72;5364011;26;20237;-78
2024/04/25 03:07:42;;;;;;;8.53;5.37;;;;;;;3.67;86.10;94680.69;5365322;26;20241;-80
2024/04/25 03:10:08;;;;;;;8.40;4.70;;;;;;;3.61;86.48;94665.78;5340681;26;20236;-80
2024/04/25 03:12:33;;;;;;;6.97;5.20;;;;;;;3.56;86.47;94670.50;5368501;26;20236;-80
2024/04/25 03:14:58;;;;;;;6.83;5.53;;;;;;;3.78;85.64;94671.28;5352127;26;20254;-80
2024/04/25 03:17:24;;;;;;;8.13;5.50;;;;;;;3.75;85.44;94674.13;5359309;26;20797;-79
2024/04/25 03:19:50;;;;;;;6.73;5.43;;;;;;;3.55;86.05;94676.59;5377605;26;20244;-81
2024/04/25 03:22:15;;;;;;;7.33;5.40;;;;;;;3.66;86.56;94673.13;5370472;26;20845;-80
2024/04/25 03:24:40;;;;;;;9.10;5.97;;;;;;;3.71;85.91;94671.00;5367451;26;20245;-80
2024/04/25 03:27:06;;;;;;;8.87;5.60;;;;;;;3.83;85.37;94669.16;5352788;26;20238;-80
2024/04/25 03:29:31;;;;;;;7.80;6.00;;;;;;;3.87;85.25;94670.50;5365892;26;20237;-80
2024/04/25 03:31:56;;;;;;;10.00;6.30;;;;;;;3.69;86.09;94673.66;5354085;26;20349;-80
2024/04/25 03:34:21;;;;;;;6.40;5.60;;;;;;;3.56;86.63;94675.63;5371150;26;20286;-78
2024/04/25 03:36:49;;;;;;;8.83;6.23;;;;;;;3.72;86.27;94674.38;5313040;26;20251;-82
2024/04/25 03:39:20;;;;;;;8.40;5.80;;;;;;;3.84;85.66;94681.06;5360874;26;20242;-81
2024/04/25 03:41:45;;;;;;;8.13;5.90;;;;;;;3.79;85.62;94667.78;5360816;26;20263;-80
2024/04/25 03:44:10;;;;;;;8.80;5.83;;;;;;;3.69;86.49;94676.25;5372812;26;20763;-79
2024/04/25 03:46:36;;;;;;;7.80;5.53;;;;;;;3.80;86.40;94671.97;5339571;26;20286;-79
2024/04/25 03:49:02;;;;;;;13.83;6.70;;;;;;;3.86;85.65;94677.41;5367184;26;20802;-80
2024/04/25 03:51:28;;;;;;;8.53;5.70;;;;;;;3.81;86.15;94671.03;5358994;26;20327;-79
2024/04/25 03:53:53;;;;;;;9.00;5.70;;;;;;;3.83;85.76;94674.28;5323141;26;20636;-80
2024/04/25 03:56:18;;;;;;;8.20;5.87;;;;;;;3.69;85.87;94678.81;5370798;26;20678;-78
2024/04/25 03:58:44;;;;;;;7.23;5.70;;;;;;;3.81;86.08;94678.75;5369093;26;21926;-78
2024/04/25 04:01:09;;;;;;;7.97;5.50;;;;;;;3.74;86.27;94685.34;5360619;26;20284;-80
2024/04/25 04:03:34;;;;;;;8.03;6.27;;;;;;;3.72;86.39;94687.22;5358259;26;20320;-79
2024/04/25 04:06:00;;;;;;;6.80;6.10;;;;;;;3.71;86.49;94676.13;5332736;26;20290;-80
2024/04/25 04:08:26;;;;;;;9.07;6.00;;;;;;;3.66;86.93;94681.63;5368640;26;20240;-78
2024/04/25 04:10:51;;;;;;;7.57;5.93;;;;;;;3.69;87.22;94680.56;5332390;26;20337;-79
2024/04/25 04:13:16;;;;;;;9.63;5.90;;;;;;;3.74;86.80;94691.28;5368801;26;20338;-77
2024/04/25 04:15:42;;;;;;;8.27;6.60;;;;;;;3.78;86.67;94682.38;5359899;26;20253;-79
2024/04/25 04:18:07;;;;;;;8.33;6.17;;;;;;;3.60;86.99;94689.84;5357356;26;20241;-79
2024/04/25 04:20:34;;;;;;;8.93;6.93;;;;;;;3.81;86.52;94694.16;5374666;26;20234;-77
2024/04/25 04:22:59;;;;;;;10.83;6.63;;;;;;;3.72;86.50;94687.22;5342319;26;20248;-79
2024/04/25 04:25:25;;;;;;;9.80;6.33;;;;;;;3.74;86.35;94688.72;5332385;26;20274;-76
2024/04/25 04:27:50;;;;;;;8.93;6.57;;;;;;;3.81;86.35;94686.47;5324987;26;20241;-80
2024/04/25 04:30:15;;;;;;;9.87;6.73;;;;;;;3.75;85.87;94692.91;5365564;26;20233;-79
2024/04/25 04:32:41;;;;;;;10.40;7.20;;;;;;;3.69;86.16;94689.06;5367583;26;20332;-79
2024/04/25 04:35:06;;;;;;;9.47;6.43;;;;;;;3.72;86.41;94682.91;5365147;26;20244;-79
2024/04/25 04:37:32;;;;;;;10.23;7.23;;;;;;;3.66;86.45;94693.66;5357950;26;20275;-80
2024/04/25 04:39:57;;;;;;;11.07;7.30;;;;;;;3.54;87.42;94685.22;5351480;26;20247;-80
2024/04/25 04:42:22;;;;;;;12.00;7.63;;;;;;;3.42;88.08;94683.66;5360401;26;20232;-78
2024/04/25 04:44:48;;;;;;;11.03;7.70;;;;;;;3.57;87.09;94686.72;5369641;26;20241;-81
2024/04/25 04:47:13;;;;;;;14.83;9.13;;;;;;;3.61;87.07;94685.50;5320617;26;20774;-80
2024/04/25 04:49:39;;;;;;;10.30;7.63;;;;;;;3.70;86.83;94685.56;5342976;26;20282;-80
2024/04/25 04:52:05;;;;;;;12.47;8.23;;;;;;;3.70;86.66;94685.56;5339640;26;20239;-78
2024/04/25 04:54:30;;;;;;;11.77;7.83;;;;;;;3.59;87.12;94688.22;5365135;26;20254;-80
2024/04/25 04:56:56;;;;;;;12.13;8.97;;;;;;;3.65;86.83;94687.72;5361418;26;20233;-80
2024/04/25 04:59:21;;;;;;;11.80;9.43;;;;;;;3.73;86.92;94694.78;5349316;26;20288;-79
2024/04/25 05:01:46;;;;;;;15.27;11.03;;;;;;;3.83;85.95;94694.84;5304651;26;20239;-80
2024/04/25 05:04:12;;;;;;;10.87;9.77;;;;;;;3.65;86.37;94695.41;5349192;26;20745;-79
2024/04/25 05:06:37;;;;;;;9.83;7.67;;;;;;;3.69;87.07;94701.91;5366514;26;20275;-79
2024/04/25 05:09:06;;;;;;;12.70;8.77;;;;;;;3.53;87.01;94698.97;5367793;26;20322;-80
2024/04/25 05:11:32;;;;;;;15.07;11.67;;;;;;;3.72;86.91;94707.75;5336826;26;20264;-81
2024/04/25 05:13:59;;;;;;;9.87;8.33;;;;;;;3.71;86.46;94709.53;5352069;26;20278;-79
2024/04/25 05:16:25;;;;;;;11.00;7.80;;;;;;;3.78;86.23;94704.66;5364215;26;20243;-80
2024/04/25 05:18:50;;;;;;;10.53;7.20;;;;;;;3.90;85.73;94704.47;5324227;26;20288;-80
2024/04/25 05:21:16;;;;;;;14.87;8.20;;;;;;;3.76;85.97;94701.41;5371920;26;20353;-80
2024/04/25 05:23:41;;;;;;;13.67;8.67;;;;;;;3.64;86.96;94701.50;5354583;26;20248;-78
2024/04/25 05:26:07;;;;;;;9.13;8.00;;;;;;;3.90;85.67;94701.91;5362048;26;20233;-81
2024/04/25 05:28:33;;;;;;;13.37;8.57;;;;;;;4.00;85.17;94707.09;5359418;26;20288;-80
2024/04/25 05:30:58;;;;;;;15.50;9.93;;;;;;;3.94;85.77;94702.47;5322646;26;20247;-80
2024/04/25 05:33:23;;;;;;;15.77;8.77;;;;;;;4.05;85.09;94704.13;5366378;26;20243;-79
2024/04/25 05:35:50;;;;;;;13.50;8.30;;;;;;;4.17;84.07;94697.97;5349515;26;20332;-80
2024/04/25 05:38:16;;;;;;;16.70;8.90;;;;;;;4.13;84.84;94705.09;5364675;26;20229;-79
2024/04/25 05:40:41;;;;;;;15.13;8.87;;;;;;;4.18;84.13;94699.59;5353766;26;20336;-79
2024/04/25 05:43:07;;;;;;;17.07;8.93;;;;;;;4.22;84.39;94706.09;5334988;26;20241;-82
2024/04/25 05:45:32;;;;;;;13.67;8.63;;;;;;;4.36;83.79;94710.06;5368949;26;20245;-79
2024/04/25 05:47:57;;;;;;;16.10;8.27;;;;;;;4.17;83.62;94709.06;5370816;26;20345;-80
2024/04/25 05:50:23;;;;;;;11.40;8.10;;;;;;;4.24;83.46;94710.19;5365128;26;20233;-81
2024/04/25 05:52:48;;;;;;;14.13;8.60;;;;;;;4.28;83.41;94712.47;5333797;26;20285;-81
2024/04/25 05:55:14;;;;;;;13.10;8.03;;;;;;;4.12;83.59;94711.19;5374879;26;20283;-81
2024/04/25 05:57:40;;;;;;;17.73;9.10;;;;;;;4.17;83.95;94718.53;5374625;26;20285;-81
2024/04/25 06:00:06;;;;;;;12.83;8.23;;;;;;;4.23;83.81;94718.81;5367563;26;20575;-81
2024/04/25 06:02:31;;;;;;;12.23;7.77;;;;;;;4.21;83.47;94717.31;5353482;26;20617;-81
2024/04/25 06:04:56;;;;;;;12.17;8.30;;;;;;;4.25;83.41;94716.94;5369081;26;20635;-80
2024/04/25 06:07:22;;;;;;;12.90;7.63;;;;;;;4.27;83.41;94727.09;5363876;26;20244;-80
2024/04/25 06:09:48;;;;;;;8.23;7.27;;;;;;;4.33;83.58;94730.88;5351990;26;20848;-80
2024/04/25 06:12:14;;;;;;;11.30;8.10;;;;;;;4.33;83.93;94725.75;5365294;26;20762;-79
2024/04/25 06:14:40;;;;;;;13.10;7.27;;;;;;;4.34;83.92;94730.78;5349773;26;20386;-81
2024/04/25 06:17:06;;;;;;;15.33;9.37;;;;;;;4.33;83.99;94729.16;5329240;26;20268;-80
2024/04/25 06:19:31;;;;;;;12.17;7.50;;;;;;;4.49;83.06;94728.63;5363201;26;21113;-81
2024/04/25 06:21:58;;;;;;;26.93;14.03;;;;;;;4.60;82.53;94731.13;5372714;26;20241;-79
2024/04/25 06:24:23;;;;;;;11.00;7.67;;;;;;;4.50;82.42;94731.06;5372148;26;20705;-81
2024/04/25 06:26:48;;;;;;;7.83;6.10;;;;;;;4.76;81.95;94721.13;5303399;26;20242;-80
2024/04/25 06:29:14;;;;;;;10.37;7.13;;;;;;;4.76;82.06;94723.69;5367860;26;20232;-81
2024/04/25 06:31:39;;;;;;;8.03;6.50;;;;;;;4.83;81.63;94729.94;5375308;26;20316;-79
2024/04/25 06:34:08;;;;;;;8.07;5.70;;;;;;;4.57;81.60;94736.53;5351001;26;21036;-81
2024/04/25 06:36:34;;;;;;;7.07;6.30;;;;;;;4.89;81.09;94731.19;5367260;26;20833;-81
2024/04/25 06:39:01;;;;;;;10.63;5.90;;;;;;;4.76;81.36;94726.28;5377556;26;20239;-80
2024/04/25 06:41:26;;;;;;;6.43;5.03;;;;;;;4.73;81.02;94731.69;5332027;26;20295;-81
2024/04/25 06:43:52;;;;;;;10.13;5.63;;;;;;;4.72;80.99;94726.69;5335363;26;20235;-81
2024/04/25 06:46:18;;;;;;;6.60;5.70;;;;;;;4.64;80.52;94732.47;5372565;26;20241;-80
2024/04/25 06:48:44;;;;;;;9.37;5.83;;;;;;;4.84;80.61;94728.19;5345837;26;20238;-80
2024/04/25 06:51:09;;;;;;;6.20;5.50;;;;;;;5.05;80.71;94728.09;5357112;26;20299;-79
2024/04/25 06:53:35;;;;;;;9.97;5.97;;;;;;;5.00;80.79;94727.69;5355785;26;20276;-80
2024/04/25 06:56:01;;;;;;;11.37;7.70;;;;;;;4.81;79.55;94726.72;5373333;26;20236;-82
2024/04/25 06:58:27;;;;;;;16.23;7.97;;;;;;;5.03;80.08;94727.41;5340821;26;20243;-80
2024/04/25 07:00:52;;;;;;;13.00;7.60;;;;;;;4.90;79.29;94722.53;5357853;26;20302;-81
2024/04/25 07:03:17;;;;;;;10.83;6.70;;;;;;;5.10;78.58;94723.34;5322139;26;20249;-80
2024/04/25 07:05:43;;;;;;;9.83;6.90;;;;;;;5.29;78.58;94725.94;5366712;26;20800;-81
2024/04/25 07:08:08;;;;;;;13.53;5.70;;;;;;;5.39;77.43;94724.19;5363363;26;20653;-80
2024/04/25 07:10:33;;;;;;;7.97;6.20;;;;;;;5.24;78.58;94733.25;5341296;26;20279;-78
2024/04/25 07:12:59;;;;;;;12.03;6.53;;;;;;;5.37;77.28;94733.78;5364192;26;21058;-80
2024/04/25 07:15:26;;;;;;;11.00;5.90;;;;;;;5.22;77.40;94732.59;5377784;26;20670;-79
2024/04/25 07:17:52;;;;;;;15.03;6.17;;;;;;;5.29;77.82;94733.66;5373625;26;20285;-80
2024/04/25 07:20:17;;;;;;;11.33;6.27;;;;;;;5.32;77.40;94733.41;5379039;26;20629;-81
2024/04/25 07:22:43;;;;;;;10.63;6.30;;;;;;;5.50;76.70;94722.41;5382887;26;20244;-80
2024/04/25 07:25:11;;;;;;;10.97;6.23;;;;;;;5.40;76.82;94736.13;5384207;26;20275;-79
2024/04/25 07:27:37;;;;;;;10.43;6.10;;;;;;;5.46;76.22;94732.16;5359297;26;20289;-81
2024/04/25 07:30:02;;;;;;;11.87;5.63;;;;;;;5.61;76.68;94737.72;5364171;26;20238;-81
2024/04/25 07:32:28;;;;;;;8.30;6.13;;;;;;;5.79;75.95;94736.06;5374226;26;20274;-81
2024/04/25 07:34:53;;;;;;;8.77;5.33;;;;;;;5.34;75.88;94734.06;5325033;26;20252;-81
2024/04/25 07:37:23;;;;;;;9.37;4.90;;;;;;;5.69;75.71;94735.28;5375573;26;20239;-79
2024/04/25 07:39:48;;;;;;;10.43;4.93;;;;;;;5.65;75.16;94731.34;5388673;26;20272;-81
2024/04/25 07:42:14;;;;;;;12.40;4.90;;;;;;;5.85;74.81;94732.94;5374921;26;20248;-79
2024/04/25 07:44:39;;;;;;;8.80;4.67;;;;;;;5.80;73.05;94735.13;5382635;26;20304;-79
2024/04/25 07:47:05;;;;;;;12.73;6.20;;;;;;;6.19;73.36;94732.50;5378026;26;20236;-82
2024/04/25 07:49:30;;;;;;;14.60;6.43;;;;;;;6.34;72.38;94736.22;5369608;26;20278;-81
2024/04/25 07:51:56;;;;;;;13.07;5.93;;;;;;;6.06;72.54;94731.97;5330864;26;20271;-80
2024/04/25 07:54:21;;;;;;;10.77;5.47;;;;;;;6.34;71.79;94736.22;5364905;26;20781;-81
2024/04/25 07:56:46;;;;;;;8.80;4.80;;;;;;;6.02;71.58;94738.38;5373488;26;20240;-82
2024/04/25 07:59:12;;;;;;;5.50;4.60;;;;;;;6.26;70.69;94733.53;5375448;26;20659;-80
2024/04/25 08:01:37;;;;;;;10.80;5.33;;;;;;;6.28;70.72;94733.41;5368465;26;20233;-82
2024/04/25 08:04:03;;;;;;;8.23;4.50;;;;;;;6.51;71.09;94735.47;5371243;26;20318;-79
2024/04/25 08:06:28;;;;;;;8.77;4.60;;;;;;;6.36;69.71;94736.91;5393625;26;20239;-80
2024/04/25 08:08:53;;;;;;;8.13;4.97;;;;;;;6.83;68.73;94731.66;5338857;26;20277;-81
2024/04/25 08:11:18;;;;;;;10.53;4.60;;;;;;;6.81;68.47;94731.00;5376807;26;20313;-82
2024/04/25 08:13:45;;;;;;;7.47;3.87;;;;;;;6.53;69.35;94733.56;5367731;26;20239;-80
2024/04/25 08:16:11;;;;;;;8.67;3.70;;;;;;;6.97;67.65;94740.66;5319290;26;20283;-80
2024/04/25 08:18:36;;;;;;;7.10;3.73;;;;;;;7.07;66.58;94734.50;5389130;26;20856;-81
2024/04/25 08:21:01;;;;;;;9.50;3.20;;;;;;;7.32;65.01;94732.94;5372899;26;20282;-82
2024/04/25 08:23:27;;;;;;;6.33;3.43;;;;;;;7.70;63.76;94725.06;5344859;26;20240;-81
2024/04/25 08:25:52;;;;;;;8.20;3.27;;;;;;;7.81;64.18;94732.56;5311111;26;20243;-79
2024/04/25 08:28:18;;;;;;;9.23;4.07;;;;;;;8.12;62.21;94727.75;5339251;26;20346;-82
2024/04/25 08:30:43;;;;;;;6.60;3.13;;;;;;;8.29;61.74;94728.66;5322438;26;20249;-81
2024/04/25 08:33:09;;;;;;;6.90;3.20;;;;;;;8.08;60.40;94731.63;5349852;26;20251;-80
2024/04/25 08:35:34;;;;;;;5.70;2.53;;;;;;;8.65;59.65;94722.38;5336551;26;20322;-82
2024/04/25 08:38:01;;;;;;;5.27;1.77;;;;;;;8.54;59.15;94729.63;5358569;26;20343;-81
2024/04/25 08:40:26;;;;;;;5.33;2.17;;;;;;;8.56;59.16;94733.66;5329203;26;20237;-80
2024/04/25 08:42:52;;;;;;;4.13;2.33;;;;;;;8.90;58.68;94738.03;5356735;26;20282;-81
2024/04/25 08:45:18;;;;;;;8.47;2.53;;;;;;;8.91;57.82;94726.69;5340508;26;20258;-82
2024/04/25 08:47:44;;;;;;;5.70;2.00;;;;;;;8.94;56.79;94737.56;5369078;26;20233;-82
2024/04/25 08:50:10;;;;;;;4.77;1.73;;;;;;;9.43;57.21;94742.03;5368152;26;20245;-81
2024/04/25 08:52:37;;;;;;;5.73;2.20;;;;;;;9.10;56.58;94734.22;5350804;26;20237;-80
2024/04/25 08:55:04;;;;;;;6.63;1.90;;;;;;;9.19;54.96;94732.41;5313605;26;20252;-80
2024/04/25 08:57:29;;;;;;;4.93;2.27;;;;;;;9.69;55.46;94728.94;5369085;26;20785;-80
2024/04/25 08:59:55;;;;;;;4.93;2.00;;;;;;;9.65;54.27;94731.03;5305693;26;20300;-81
2024/04/25 09:02:22;;;;;;;5.27;2.27;;;;;;;9.78;53.78;94733.13;5364367;26;20322;-84
2024/04/25 09:04:52;;;;;;;6.97;2.00;;;;;;;9.75;54.01;94726.50;5356460;26;20771;-78
2024/04/25 09:07:18;;;;;;;4.03;2.03;;;;;;;9.31;53.80;94738.94;5352290;26;20277;-80
2024/04/25 09:09:43;;;;;;;4.03;2.20;;;;;;;10.00;53.96;94732.50;5366011;26;20241;-80
2024/04/25 09:12:08;;;;;;;6.23;1.97;;;;;;;8.97;52.46;94731.25;5358122;26;20288;-80
2024/04/25 09:14:34;;;;;;;6.23;2.60;;;;;;;9.11;54.19;94728.06;5385782;26;20330;-80
2024/04/25 09:16:59;;;;;;;7.87;2.23;;;;;;;9.07;55.94;94731.91;5336700;26;20310;-80
2024/04/25 09:19:25;;;;;;;3.90;2.33;;;;;;;9.51;54.73;94731.66;5361020;26;20760;-79
2024/04/25 09:21:50;;;;;;;5.20;2.00;;;;;;;9.47;53.22;94722.63;5365014;26;20240;-80
2024/04/25 09:24:16;;;;;;;4.33;2.00;;;;;;;9.30;52.19;94722.59;5343881;26;20245;-80
2024/04/25 09:26:42;;;;;;;4.80;2.20;;;;;;;9.63;53.30;94718.25;5325102;26;20355;-79
2024/04/25 09:29:07;;;;;;;3.53;2.10;;;;;;;9.65;52.43;94720.69;5354479;26;20240;-79
2024/04/25 09:31:35;;;;;;;7.70;2.20;;;;;;;9.67;52.51;94717.91;5333534;26;20326;-79
2024/04/25 09:34:01;;;;;;;7.00;2.67;;;;;;;9.88;52.15;94726.81;5334661;26;20288;-79
2024/04/25 09:36:28;;;;;;;5.93;2.37;;;;;;;10.35;51.54;94728.75;5359229;26;20247;-78
2024/04/25 09:38:53;;;;;;;5.13;1.80;;;;;;;10.06;50.79;94725.81;5305340;26;20247;-81
2024/04/25 09:41:19;;;;;;;6.67;2.30;;;;;;;9.91;51.32;94729.09;5363813;26;20241;-81
2024/04/25 09:43:45;;;;;;;4.07;2.00;;;;;;;8.98;53.45;94728.50;5363850;26;20249;-82
2024/04/25 09:46:15;;;;;;;8.47;2.70;;;;;;;9.24;52.87;94725.81;5390666;26;20263;-80
2024/04/25 09:48:43;;;;;;;6.80;1.97;;;;;;;8.86;52.96;94718.59;5335260;26;20245;-82
2024/04/25 09:51:23;;;;;;;6.80;2.70;;;;;;;9.51;52.99;94719.53;5325680;26;20324;-80
2024/04/25 09:53:58;;;;;;;4.47;2.20;;;;;;;9.32;50.51;94715.47;5359777;26;20235;-81
2024/04/25 09:56:26;;;;;;;7.20;2.30;;;;;;;9.44;51.74;94710.75;5372249;26;20291;-80
2024/04/25 09:59:38;;;;;;;3.23;1.87;;;;;;;10.06;50.63;94708.47;5330606;26;20242;-80
2024/04/25 10:02:04;;;;;;;3.90;2.13;;;;;;;9.98;49.89;94710.28;5239506;26;20892;-80
2024/04/25 10:04:34;;;;;;;4.73;2.00;;;;;;;9.26;51.21;94705.72;5286114;26;20242;-80
2024/04/25 10:07:00;;;;;;;6.13;1.93;;;;;;;9.29;51.80;94709.81;5289961;26;20341;-80
2024/04/25 10:09:26;;;;;;;4.00;2.07;;;;;;;9.81;52.08;94702.53;5265068;27;20602;-81
2024/04/25 10:11:52;;;;;;;4.87;3.37;;;;;;;9.38;52.79;94713.22;5297156;26;20280;-79
2024/04/25 10:14:24;;;;;;;6.23;2.10;;;;;;;9.57;53.05;94702.53;5298138;27;20234;-79
2024/04/25 10:16:50;;;;;;;11.60;2.43;;;;;;;9.78;51.28;94702.84;5258937;26;20415;-80
2024/04/25 10:19:16;;;;;;;3.17;1.70;;;;;;;10.13;50.56;94701.66;5285915;27;20787;-78
2024/04/25 10:21:46;;;;;;;3.83;2.13;;;;;;;9.29;51.16;94705.44;5326366;26;20277;-80
2024/04/25 10:24:13;;;;;;;2.30;1.80;;;;;;;9.59;50.46;94708.34;5304654;26;20252;-78
2024/04/25 10:26:44;;;;;;;6.33;2.03;;;;;;;8.71;51.41;94701.06;5289317;26;20301;-79
2024/04/25 10:29:09;;;;;;;3.13;2.23;;;;;;;8.63;52.31;94698.44;5272957;27;20390;-81
2024/04/25 10:31:36;;;;;;;7.27;3.33;;;;;;;8.57;52.03;94708.59;5264223;27;20258;-80
2024/04/25 10:34:01;;;;;;;3.90;2.30;;;;;;;8.17;52.65;94708.22;5298816;26;20295;-80
2024/04/25 10:36:27;;;;;;;6.37;2.00;;;;;;;8.05;54.04;94706.88;5323288;26;20233;-81
2024/04/25 10:38:55;;;;;;;6.73;2.43;;;;;;;6.89;57.70;94697.53;5356117;26;20270;-81
2024/04/25 10:41:33;;;;;;;4.80;2.30;;;;;;;7.48;59.54;94698.72;5368461;26;20245;-80
2024/04/25 10:43:59;;;;;;;6.00;2.50;;;;;;;8.17;57.39;94700.47;5329387;26;20303;-80
2024/04/25 10:46:24;;;;;;;3.73;2.40;;;;;;;8.44;55.94;94696.91;5362205;26;20278;-81
2024/04/25 10:48:50;;;;;;;4.70;2.40;;;;;;;7.95;56.81;94691.47;5377159;26;20734;-82
2024/04/25 10:51:15;;;;;;;6.10;2.23;;;;;;;8.41;55.34;94691.25;5351440;26;20286;-80
2024/04/25 10:53:41;;;;;;;5.60;2.23;;;;;;;7.94;55.33;94687.25;5358058;26;20275;-82
2024/04/25 10:56:06;;;;;;;3.80;2.33;;;;;;;8.75;55.01;94686.06;5342685;26;20236;-80
2024/04/25 10:58:31;;;;;;;4.23;2.60;;;;;;;8.67;54.28;94679.06;5338390;26;20241;-80
2024/04/25 11:00:57;;;;;;;4.90;2.40;;;;;;;8.42;54.74;94685.91;5365801;26;20253;-80
2024/04/25 11:03:22;;;;;;;3.27;2.50;;;;;;;8.61;53.64;94678.88;5354423;26;20248;-80
2024/04/25 11:05:48;;;;;;;5.83;2.57;;;;;;;7.72;54.26;94681.78;5327680;26;20253;-82
2024/04/25 11:08:14;;;;;;;4.97;2.60;;;;;;;7.91;54.13;94679.00;5332357;26;20287;-82
2024/04/25 11:10:39;;;;;;;5.77;2.40;;;;;;;7.49;55.74;94668.53;5367435;26;20281;-82
2024/04/25 11:13:04;;;;;;;3.03;2.37;;;;;;;8.29;55.11;94669.16;5362647;26;20240;-81
2024/04/25 11:15:31;;;;;;;4.50;2.47;;;;;;;8.17;54.52;94666.84;5334971;26;20256;-80
2024/04/25 11:17:57;;;;;;;3.60;1.93;;;;;;;8.50;54.11;94665.25;5344261;26;20287;-81
2024/04/25 11:20:22;;;;;;;3.90;2.40;;;;;;;9.63;53.06;94663.00;5374302;26;20244;-81
2024/04/25 11:22:48;;;;;;;3.47;2.03;;;;;;;10.05;51.90;94664.53;5372105;26;20274;-81
2024/04/25 11:25:16;;;;;;;6.33;2.37;;;;;;;9.15;49.69;94654.25;5379592;26;20260;-80
2024/04/25 11:27:41;;;;;;;5.27;2.20;;;;;;;9.29;49.93;94663.16;5366799;26;20256;-80
2024/04/25 11:30:07;;;;;;;2.47;1.83;;;;;;;9.78;50.32;94663.94;5390324;26;20275;-81
2024/04/25 11:32:35;;;;;;;5.17;1.97;;;;;;;9.29;50.70;94665.75;5371605;26;20244;-82
2024/04/25 11:35:09;;;;;;;7.00;2.70;;;;;;;8.97;50.86;94664.72;5333851;26;20739;-81
2024/04/25 11:37:36;;;;;;;5.40;2.33;;;;;;;9.19;50.49;94663.31;5365287;26;20268;-82
2024/04/25 11:40:02;;;;;;;2.80;2.23;;;;;;;8.99;49.87;94662.78;5365550;26;20286;-79